VTK503 UHSS-UHSI
Flight info
| Callsign | VTK503 |
|---|---|
| Flight time | 1h 2m |
| Altitude | 21000 |
| Route | ODEKO3 ODEKO G239 SARET SARET1J |
| Aircraft | AT75/M-SDFGIRY/S |
Departure
| Time | 2026-04-16 03:21 |
|---|---|
| Airport | Yuzhno-Sakhalinsk International Airport (UHSS) |
Arrival
| Time | 2026-04-16 04:23 |
|---|---|
| Airport | Iturup Airport (UHSI) |
| Time | Latitude | Longitude | Altitude | Speed | Heading |
|---|---|---|---|---|---|
| 2026-04-16 03:01 | 46.88446 | 142.72189 | 75 ft | 0 kts | 272° |
| 2026-04-16 03:16 | 46.88446 | 142.72185 | 69 ft | 2 kts | 272° |
| 2026-04-16 03:17 | 46.88447 | 142.72153 | 71 ft | 4 kts | 272° |
| 2026-04-16 03:17 | 46.88452 | 142.72100 | 76 ft | 7 kts | 299° |
| 2026-04-16 03:17 | 46.88512 | 142.72090 | 74 ft | 13 kts | 2° |
| 2026-04-16 03:17 | 46.88625 | 142.72097 | 71 ft | 19 kts | 2° |
| 2026-04-16 03:18 | 46.88763 | 142.72103 | 77 ft | 20 kts | 0° |
| 2026-04-16 03:18 | 46.88896 | 142.72108 | 76 ft | 17 kts | 2° |
| 2026-04-16 03:18 | 46.89011 | 142.72047 | 66 ft | 19 kts | 328° |
| 2026-04-16 03:18 | 46.89082 | 142.71925 | 74 ft | 11 kts | 285° |
| 2026-04-16 03:19 | 46.89073 | 142.71817 | 67 ft | 10 kts | 245° |
| 2026-04-16 03:19 | 46.89040 | 142.71769 | 74 ft | 2 kts | 204° |
| 2026-04-16 03:19 | 46.89018 | 142.71757 | 75 ft | 4 kts | 194° |
| 2026-04-16 03:19 | 46.89010 | 142.71755 | 74 ft | 0 kts | 187° |
| 2026-04-16 03:20 | 46.88873 | 142.71750 | 66 ft | 53 kts | 180° |
| 2026-04-16 03:20 | 46.88283 | 142.71735 | 90 ft | 113 kts | 181° |
| 2026-04-16 03:20 | 46.87450 | 142.71737 | 565 ft | 124 kts | 179° |
| 2026-04-16 03:21 | 46.86520 | 142.71799 | 1112 ft | 145 kts | 175° |
| 2026-04-16 03:21 | 46.85535 | 142.72287 | 1856 ft | 153 kts | 150° |
| 2026-04-16 03:21 | 46.84683 | 142.73393 | 2393 ft | 170 kts | 122° |
| 2026-04-16 03:21 | 46.84404 | 142.75051 | 3175 ft | 170 kts | 101° |
| 2026-04-16 03:22 | 46.84227 | 142.76786 | 3858 ft | 174 kts | 99° |
| 2026-04-16 03:22 | 46.84005 | 142.78529 | 4479 ft | 176 kts | 102° |
| 2026-04-16 03:22 | 46.83698 | 142.80268 | 5030 ft | 177 kts | 105° |
| 2026-04-16 03:22 | 46.83296 | 142.81970 | 5658 ft | 178 kts | 110° |
| 2026-04-16 03:23 | 46.82793 | 142.83621 | 6282 ft | 178 kts | 112° |
| 2026-04-16 03:23 | 46.82235 | 142.85239 | 6912 ft | 179 kts | 114° |
| 2026-04-16 03:23 | 46.81651 | 142.86865 | 7445 ft | 183 kts | 115° |
| 2026-04-16 03:23 | 46.81049 | 142.88510 | 8058 ft | 185 kts | 115° |
| 2026-04-16 03:24 | 46.80428 | 142.90180 | 8590 ft | 189 kts | 116° |
| 2026-04-16 03:24 | 46.79797 | 142.91874 | 9052 ft | 191 kts | 116° |
| 2026-04-16 03:24 | 46.79161 | 142.93594 | 9502 ft | 194 kts | 116° |
| 2026-04-16 03:24 | 46.78504 | 142.95328 | 10018 ft | 197 kts | 116° |
| 2026-04-16 03:25 | 46.77846 | 142.97094 | 10523 ft | 199 kts | 115° |
| 2026-04-16 03:25 | 46.77171 | 142.98879 | 10888 ft | 202 kts | 116° |
| 2026-04-16 03:25 | 46.76493 | 143.00684 | 11355 ft | 204 kts | 115° |
| 2026-04-16 03:25 | 46.75816 | 143.02518 | 11889 ft | 207 kts | 115° |
| 2026-04-16 03:26 | 46.75130 | 143.04371 | 12423 ft | 209 kts | 115° |
| 2026-04-16 03:26 | 46.74440 | 143.06258 | 12949 ft | 212 kts | 115° |
| 2026-04-16 03:26 | 46.73737 | 143.08167 | 13464 ft | 215 kts | 115° |
| 2026-04-16 03:26 | 46.73021 | 143.10100 | 13974 ft | 218 kts | 115° |
| 2026-04-16 03:27 | 46.72291 | 143.12052 | 14461 ft | 220 kts | 115° |
| 2026-04-16 03:27 | 46.71558 | 143.14020 | 14917 ft | 222 kts | 114° |
| 2026-04-16 03:27 | 46.70816 | 143.16013 | 15363 ft | 225 kts | 114° |
| 2026-04-16 03:27 | 46.70060 | 143.18026 | 15781 ft | 228 kts | 114° |
| 2026-04-16 03:28 | 46.69289 | 143.20047 | 16226 ft | 230 kts | 113° |
| 2026-04-16 03:28 | 46.68515 | 143.22095 | 16665 ft | 232 kts | 113° |
| 2026-04-16 03:28 | 46.67737 | 143.24162 | 17083 ft | 234 kts | 112° |
| 2026-04-16 03:28 | 46.66953 | 143.26253 | 17494 ft | 236 kts | 112° |
| 2026-04-16 03:29 | 46.66165 | 143.28360 | 17900 ft | 238 kts | 111° |
| 2026-04-16 03:29 | 46.65370 | 143.30484 | 18321 ft | 240 kts | 111° |
| 2026-04-16 03:29 | 46.64565 | 143.32623 | 18707 ft | 242 kts | 111° |
| 2026-04-16 03:29 | 46.63755 | 143.34786 | 19041 ft | 244 kts | 111° |
| 2026-04-16 03:30 | 46.62949 | 143.36935 | 19350 ft | 246 kts | 111° |
| 2026-04-16 03:30 | 46.62123 | 143.39129 | 19669 ft | 248 kts | 110° |
| 2026-04-16 03:30 | 46.61288 | 143.41338 | 19972 ft | 250 kts | 110° |
| 2026-04-16 03:30 | 46.60448 | 143.43564 | 20296 ft | 252 kts | 110° |
| 2026-04-16 03:31 | 46.59606 | 143.45818 | 20639 ft | 254 kts | 110° |
| 2026-04-16 03:31 | 46.58763 | 143.48085 | 20958 ft | 255 kts | 108° |
| 2026-04-16 03:31 | 46.58022 | 143.50443 | 21122 ft | 260 kts | 102° |
| 2026-04-16 03:31 | 46.57366 | 143.52943 | 21197 ft | 270 kts | 100° |
| 2026-04-16 03:32 | 46.56714 | 143.55552 | 21226 ft | 280 kts | 100° |
| 2026-04-16 03:32 | 46.56027 | 143.58263 | 21240 ft | 291 kts | 102° |
| 2026-04-16 03:34 | 46.50497 | 143.78680 | 21249 ft | 321 kts | 103° |
| 2026-04-16 03:34 | 46.49684 | 143.81684 | 21243 ft | 318 kts | 103° |
| 2026-04-16 03:34 | 46.48882 | 143.84653 | 21248 ft | 314 kts | 103° |
| 2026-04-16 03:34 | 46.48086 | 143.87591 | 21247 ft | 311 kts | 103° |
| 2026-04-16 03:35 | 46.47266 | 143.90495 | 21244 ft | 310 kts | 103° |
| 2026-04-16 03:35 | 46.46452 | 143.93373 | 21252 ft | 308 kts | 103° |
| 2026-04-16 03:35 | 46.45648 | 143.96245 | 21252 ft | 306 kts | 103° |
| 2026-04-16 03:35 | 46.44859 | 143.99102 | 21252 ft | 305 kts | 103° |
| 2026-04-16 03:36 | 46.44080 | 144.01954 | 21255 ft | 304 kts | 102° |
| 2026-04-16 03:36 | 46.43302 | 144.04798 | 21255 ft | 303 kts | 103° |
| 2026-04-16 03:36 | 46.42524 | 144.07629 | 21255 ft | 302 kts | 103° |
| 2026-04-16 03:36 | 46.41744 | 144.10460 | 21256 ft | 302 kts | 103° |
| 2026-04-16 03:37 | 46.40964 | 144.13281 | 21256 ft | 302 kts | 103° |
| 2026-04-16 03:37 | 46.40184 | 144.16098 | 21257 ft | 301 kts | 103° |
| 2026-04-16 03:37 | 46.39403 | 144.18913 | 21258 ft | 301 kts | 103° |
| 2026-04-16 03:37 | 46.38621 | 144.21729 | 21256 ft | 301 kts | 103° |
| 2026-04-16 03:38 | 46.37840 | 144.24538 | 21256 ft | 301 kts | 103° |
| 2026-04-16 03:38 | 46.37059 | 144.27343 | 21257 ft | 301 kts | 103° |
| 2026-04-16 03:38 | 46.36277 | 144.30148 | 21258 ft | 300 kts | 103° |
| 2026-04-16 03:38 | 46.35494 | 144.32953 | 21261 ft | 300 kts | 103° |
| 2026-04-16 03:39 | 46.34713 | 144.35751 | 21257 ft | 300 kts | 103° |
| 2026-04-16 03:39 | 46.33929 | 144.38554 | 21257 ft | 300 kts | 103° |
| 2026-04-16 03:39 | 46.33145 | 144.41353 | 21256 ft | 300 kts | 103° |
| 2026-04-16 03:39 | 46.32363 | 144.44148 | 21259 ft | 300 kts | 103° |
| 2026-04-16 03:40 | 46.31578 | 144.46945 | 21257 ft | 300 kts | 103° |
| 2026-04-16 03:40 | 46.30793 | 144.49740 | 21260 ft | 300 kts | 103° |
| 2026-04-16 03:40 | 46.30017 | 144.52496 | 21260 ft | 300 kts | 103° |
| 2026-04-16 03:40 | 46.29231 | 144.55288 | 21257 ft | 300 kts | 103° |
| 2026-04-16 03:41 | 46.28445 | 144.58077 | 21258 ft | 300 kts | 103° |
| 2026-04-16 03:41 | 46.27659 | 144.60862 | 21255 ft | 299 kts | 103° |
| 2026-04-16 03:41 | 46.26880 | 144.63652 | 21255 ft | 299 kts | 102° |
| 2026-04-16 03:41 | 46.26110 | 144.66444 | 21257 ft | 299 kts | 103° |
| 2026-04-16 03:42 | 46.25317 | 144.69219 | 21256 ft | 299 kts | 103° |
| 2026-04-16 03:42 | 46.24523 | 144.72000 | 21256 ft | 299 kts | 103° |
| 2026-04-16 03:42 | 46.23732 | 144.74772 | 21255 ft | 299 kts | 103° |
| 2026-04-16 03:42 | 46.22939 | 144.77551 | 21256 ft | 299 kts | 103° |
| 2026-04-16 03:43 | 46.22153 | 144.80327 | 21256 ft | 299 kts | 103° |
| 2026-04-16 03:43 | 46.21365 | 144.83096 | 21256 ft | 299 kts | 103° |
| 2026-04-16 03:43 | 46.20572 | 144.85868 | 21256 ft | 299 kts | 103° |
| 2026-04-16 03:43 | 46.19780 | 144.88635 | 21257 ft | 298 kts | 103° |
| 2026-04-16 03:44 | 46.18986 | 144.91402 | 21255 ft | 298 kts | 103° |
| 2026-04-16 03:44 | 46.18191 | 144.94171 | 21259 ft | 298 kts | 103° |
| 2026-04-16 03:44 | 46.17396 | 144.96934 | 21258 ft | 298 kts | 103° |
| 2026-04-16 03:44 | 46.16602 | 144.99693 | 21265 ft | 298 kts | 104° |
| 2026-04-16 03:45 | 46.15806 | 145.02453 | 21259 ft | 298 kts | 104° |
| 2026-04-16 03:45 | 46.15011 | 145.05208 | 21259 ft | 298 kts | 104° |
| 2026-04-16 03:45 | 46.14216 | 145.07964 | 21258 ft | 297 kts | 104° |
| 2026-04-16 03:45 | 46.13419 | 145.10717 | 21259 ft | 297 kts | 104° |
| 2026-04-16 03:46 | 46.12622 | 145.13469 | 21260 ft | 297 kts | 104° |
| 2026-04-16 03:46 | 46.11823 | 145.16216 | 21256 ft | 297 kts | 104° |
| 2026-04-16 03:46 | 46.11026 | 145.18964 | 21263 ft | 297 kts | 104° |
| 2026-04-16 03:46 | 46.10227 | 145.21708 | 21254 ft | 297 kts | 104° |
| 2026-04-16 03:47 | 46.09430 | 145.24450 | 21258 ft | 297 kts | 104° |
| 2026-04-16 03:47 | 46.08632 | 145.27193 | 21253 ft | 297 kts | 104° |
| 2026-04-16 03:47 | 46.07833 | 145.29933 | 21260 ft | 297 kts | 105° |
| 2026-04-16 03:47 | 46.07037 | 145.32667 | 21261 ft | 297 kts | 105° |
| 2026-04-16 03:48 | 46.06237 | 145.35405 | 21255 ft | 297 kts | 105° |
| 2026-04-16 03:48 | 46.05433 | 145.38142 | 21257 ft | 296 kts | 105° |
| 2026-04-16 03:48 | 46.04634 | 145.40870 | 21261 ft | 296 kts | 105° |
| 2026-04-16 03:48 | 46.03833 | 145.43602 | 21254 ft | 296 kts | 105° |
| 2026-04-16 03:49 | 46.03032 | 145.46329 | 21257 ft | 296 kts | 105° |
| 2026-04-16 03:49 | 46.02240 | 145.49024 | 21254 ft | 296 kts | 105° |
| 2026-04-16 03:49 | 46.01438 | 145.51785 | 21258 ft | 296 kts | 105° |
| 2026-04-16 03:49 | 46.00656 | 145.54478 | 21254 ft | 295 kts | 105° |
| 2026-04-16 03:50 | 45.99833 | 145.57230 | 21253 ft | 296 kts | 107° |
| 2026-04-16 03:50 | 45.99019 | 145.59911 | 21260 ft | 296 kts | 107° |
| 2026-04-16 03:50 | 45.98214 | 145.62626 | 21261 ft | 295 kts | 106° |
| 2026-04-16 03:50 | 45.97411 | 145.65343 | 21255 ft | 295 kts | 107° |
| 2026-04-16 03:51 | 45.96607 | 145.68057 | 21257 ft | 295 kts | 107° |
| 2026-04-16 03:51 | 45.95804 | 145.70763 | 21255 ft | 295 kts | 107° |
| 2026-04-16 03:51 | 45.95005 | 145.73475 | 21255 ft | 295 kts | 107° |
| 2026-04-16 03:51 | 45.94201 | 145.76184 | 21255 ft | 295 kts | 108° |
| 2026-04-16 03:52 | 45.93394 | 145.78891 | 21255 ft | 295 kts | 108° |
| 2026-04-16 03:52 | 45.92588 | 145.81591 | 21258 ft | 294 kts | 108° |
| 2026-04-16 03:52 | 45.91782 | 145.84294 | 21256 ft | 294 kts | 108° |
| 2026-04-16 03:52 | 45.90976 | 145.86994 | 21257 ft | 294 kts | 108° |
| 2026-04-16 03:53 | 45.90169 | 145.89695 | 21261 ft | 294 kts | 108° |
| 2026-04-16 03:53 | 45.89363 | 145.92388 | 21255 ft | 294 kts | 108° |
| 2026-04-16 03:53 | 45.88556 | 145.95083 | 21256 ft | 294 kts | 108° |
| 2026-04-16 03:53 | 45.87746 | 145.97773 | 21256 ft | 294 kts | 108° |
| 2026-04-16 03:54 | 45.86936 | 146.00467 | 21254 ft | 294 kts | 108° |
| 2026-04-16 03:54 | 45.86127 | 146.03155 | 21256 ft | 294 kts | 109° |
| 2026-04-16 03:54 | 45.85318 | 146.05843 | 21257 ft | 294 kts | 109° |
| 2026-04-16 03:54 | 45.84509 | 146.08529 | 21254 ft | 293 kts | 109° |
| 2026-04-16 03:55 | 45.83700 | 146.11216 | 21255 ft | 293 kts | 109° |
| 2026-04-16 03:55 | 45.82891 | 146.13898 | 21253 ft | 293 kts | 109° |
| 2026-04-16 03:55 | 45.82080 | 146.16584 | 21253 ft | 293 kts | 109° |
| 2026-04-16 03:55 | 45.81269 | 146.19262 | 21252 ft | 293 kts | 109° |
| 2026-04-16 03:56 | 45.80456 | 146.21938 | 21257 ft | 293 kts | 109° |
| 2026-04-16 03:56 | 45.79644 | 146.24616 | 21256 ft | 293 kts | 109° |
| 2026-04-16 03:56 | 45.79105 | 146.26388 | 21257 ft | 293 kts | 109° |
| 2026-04-16 03:56 | 45.78020 | 146.29962 | 21256 ft | 293 kts | 110° |
| 2026-04-16 03:57 | 45.77207 | 146.32638 | 21255 ft | 292 kts | 110° |
| 2026-04-16 03:57 | 45.76394 | 146.35309 | 21252 ft | 292 kts | 110° |
| 2026-04-16 03:57 | 45.75855 | 146.37074 | 21253 ft | 292 kts | 110° |
| 2026-04-16 03:57 | 45.75041 | 146.39744 | 21252 ft | 292 kts | 110° |
| 2026-04-16 03:58 | 45.74228 | 146.42409 | 21254 ft | 292 kts | 110° |
| 2026-04-16 03:58 | 45.73413 | 146.45079 | 21254 ft | 292 kts | 110° |
| 2026-04-16 03:58 | 45.72600 | 146.47742 | 21253 ft | 292 kts | 110° |
| 2026-04-16 03:58 | 45.71784 | 146.50408 | 21252 ft | 292 kts | 110° |
| 2026-04-16 03:59 | 45.70968 | 146.53068 | 21252 ft | 292 kts | 110° |
| 2026-04-16 03:59 | 45.70148 | 146.55729 | 21254 ft | 292 kts | 110° |
| 2026-04-16 03:59 | 45.69331 | 146.58389 | 21253 ft | 292 kts | 110° |
| 2026-04-16 03:59 | 45.68514 | 146.61046 | 21254 ft | 292 kts | 110° |
| 2026-04-16 04:00 | 45.67695 | 146.63705 | 21253 ft | 292 kts | 111° |
| 2026-04-16 04:00 | 45.66876 | 146.66364 | 21255 ft | 292 kts | 111° |
| 2026-04-16 04:00 | 45.66057 | 146.69019 | 21255 ft | 292 kts | 111° |
| 2026-04-16 04:00 | 45.65239 | 146.71679 | 21251 ft | 292 kts | 110° |
| 2026-04-16 04:01 | 45.64432 | 146.74335 | 21250 ft | 292 kts | 111° |
| 2026-04-16 04:01 | 45.63593 | 146.76976 | 21251 ft | 292 kts | 112° |
| 2026-04-16 04:01 | 45.62754 | 146.79584 | 21256 ft | 292 kts | 111° |
| 2026-04-16 04:01 | 45.61913 | 146.82264 | 21251 ft | 292 kts | 111° |
| 2026-04-16 04:02 | 45.61081 | 146.84914 | 21254 ft | 292 kts | 111° |
| 2026-04-16 04:02 | 45.60250 | 146.87554 | 21256 ft | 292 kts | 111° |
| 2026-04-16 04:02 | 45.59425 | 146.90166 | 21250 ft | 292 kts | 111° |
| 2026-04-16 04:02 | 45.58576 | 146.92845 | 21250 ft | 292 kts | 111° |
| 2026-04-16 04:03 | 45.57746 | 146.95492 | 21250 ft | 292 kts | 111° |
| 2026-04-16 04:03 | 45.56911 | 146.98135 | 21250 ft | 291 kts | 111° |
| 2026-04-16 04:03 | 45.56070 | 147.00722 | 21254 ft | 292 kts | 113° |
| 2026-04-16 04:03 | 45.55198 | 147.03335 | 21252 ft | 292 kts | 112° |
| 2026-04-16 04:04 | 45.54355 | 147.05970 | 21255 ft | 292 kts | 112° |
| 2026-04-16 04:04 | 45.53521 | 147.08610 | 21257 ft | 292 kts | 112° |
| 2026-04-16 04:04 | 45.52697 | 147.11257 | 21254 ft | 292 kts | 112° |
| 2026-04-16 04:04 | 45.51876 | 147.13911 | 21251 ft | 292 kts | 111° |
| 2026-04-16 04:05 | 45.51061 | 147.16567 | 21257 ft | 293 kts | 111° |
| 2026-04-16 04:05 | 45.50227 | 147.19210 | 21252 ft | 293 kts | 113° |
| 2026-04-16 04:05 | 45.49372 | 147.21854 | 21251 ft | 293 kts | 113° |
| 2026-04-16 04:05 | 45.48529 | 147.24495 | 21254 ft | 293 kts | 113° |
| 2026-04-16 04:06 | 45.47684 | 147.27143 | 21250 ft | 293 kts | 113° |
| 2026-04-16 04:06 | 45.46841 | 147.29787 | 21258 ft | 293 kts | 113° |
| 2026-04-16 04:06 | 45.45998 | 147.32431 | 21252 ft | 294 kts | 114° |
| 2026-04-16 04:06 | 45.45152 | 147.35079 | 21251 ft | 294 kts | 114° |
| 2026-04-16 04:07 | 45.44304 | 147.37730 | 21252 ft | 294 kts | 114° |
| 2026-04-16 04:07 | 45.42608 | 147.43034 | 21253 ft | 294 kts | 114° |
| 2026-04-16 04:07 | 45.41758 | 147.45681 | 21251 ft | 294 kts | 114° |
| 2026-04-16 04:08 | 45.40906 | 147.48334 | 21246 ft | 295 kts | 114° |
| 2026-04-16 04:08 | 45.40054 | 147.50986 | 21246 ft | 295 kts | 114° |
| 2026-04-16 04:08 | 45.39436 | 147.52891 | 21243 ft | 277 kts | 115° |
| 2026-04-16 04:08 | 45.38651 | 147.55287 | 20905 ft | 262 kts | 115° |
| 2026-04-16 04:09 | 45.37904 | 147.57629 | 20380 ft | 258 kts | 113° |
| 2026-04-16 04:09 | 45.37196 | 147.59944 | 19872 ft | 254 kts | 113° |
| 2026-04-16 04:09 | 45.36498 | 147.62235 | 19373 ft | 251 kts | 113° |
| 2026-04-16 04:09 | 45.35807 | 147.64499 | 18884 ft | 248 kts | 112° |
| 2026-04-16 04:10 | 45.35122 | 147.66737 | 18391 ft | 246 kts | 112° |
| 2026-04-16 04:10 | 45.34450 | 147.68924 | 17822 ft | 244 kts | 112° |
| 2026-04-16 04:10 | 45.33851 | 147.71179 | 17271 ft | 239 kts | 106° |
| 2026-04-16 04:10 | 45.33348 | 147.73388 | 16741 ft | 238 kts | 107° |
| 2026-04-16 04:11 | 45.32798 | 147.75629 | 16202 ft | 236 kts | 108° |
| 2026-04-16 04:11 | 45.32115 | 147.77733 | 15688 ft | 234 kts | 118° |
| 2026-04-16 04:11 | 45.31333 | 147.79720 | 15185 ft | 233 kts | 118° |
| 2026-04-16 04:11 | 45.30602 | 147.81760 | 14682 ft | 231 kts | 115° |
| 2026-04-16 04:12 | 45.29881 | 147.83797 | 14190 ft | 231 kts | 116° |
| 2026-04-16 04:12 | 45.29143 | 147.85816 | 13653 ft | 230 kts | 117° |
| 2026-04-16 04:12 | 45.28404 | 147.87827 | 13131 ft | 229 kts | 117° |
| 2026-04-16 04:12 | 45.27669 | 147.89833 | 12575 ft | 228 kts | 117° |
| 2026-04-16 04:13 | 45.26939 | 147.91826 | 12039 ft | 227 kts | 117° |
| 2026-04-16 04:13 | 45.26235 | 147.93808 | 11523 ft | 220 kts | 111° |
| 2026-04-16 04:13 | 45.26052 | 147.95898 | 11038 ft | 211 kts | 83° |
| 2026-04-16 04:13 | 45.26278 | 147.97940 | 10508 ft | 209 kts | 74° |
| 2026-04-16 04:14 | 45.26600 | 147.99954 | 9991 ft | 209 kts | 72° |
| 2026-04-16 04:14 | 45.26951 | 148.01947 | 9439 ft | 208 kts | 72° |
| 2026-04-16 04:14 | 45.27318 | 148.03930 | 8937 ft | 207 kts | 71° |
| 2026-04-16 04:14 | 45.27692 | 148.05898 | 8401 ft | 206 kts | 71° |
| 2026-04-16 04:15 | 45.28067 | 148.07847 | 7875 ft | 204 kts | 71° |
| 2026-04-16 04:15 | 45.28443 | 148.09784 | 7356 ft | 203 kts | 71° |
| 2026-04-16 04:15 | 45.28822 | 148.11700 | 6841 ft | 201 kts | 71° |
| 2026-04-16 04:15 | 45.29203 | 148.13602 | 6312 ft | 199 kts | 71° |
| 2026-04-16 04:16 | 45.29582 | 148.15479 | 5782 ft | 197 kts | 71° |
| 2026-04-16 04:16 | 45.29957 | 148.17346 | 5258 ft | 196 kts | 71° |
| 2026-04-16 04:16 | 45.30317 | 148.19196 | 4727 ft | 190 kts | 75° |
| 2026-04-16 04:16 | 45.30135 | 148.21014 | 4186 ft | 192 kts | 120° |
| 2026-04-16 04:17 | 45.29126 | 148.22176 | 3704 ft | 190 kts | 165° |
| 2026-04-16 04:17 | 45.27801 | 148.22108 | 3347 ft | 194 kts | 196° |
| 2026-04-16 04:17 | 45.26635 | 148.21254 | 3337 ft | 184 kts | 224° |
| 2026-04-16 04:17 | 45.25909 | 148.19770 | 3407 ft | 182 kts | 252° |
| 2026-04-16 04:18 | 45.25561 | 148.18169 | 3397 ft | 165 kts | 255° |
| 2026-04-16 04:18 | 45.25163 | 148.16681 | 3169 ft | 159 kts | 249° |
| 2026-04-16 04:18 | 45.24653 | 148.15295 | 2988 ft | 154 kts | 245° |
| 2026-04-16 04:18 | 45.24200 | 148.13939 | 2832 ft | 156 kts | 250° |
| 2026-04-16 04:19 | 45.23826 | 148.12486 | 2771 ft | 157 kts | 254° |
| 2026-04-16 04:19 | 45.23456 | 148.11003 | 2804 ft | 161 kts | 253° |
| 2026-04-16 04:19 | 45.23111 | 148.09515 | 2873 ft | 162 kts | 256° |
| 2026-04-16 04:19 | 45.22847 | 148.08026 | 2802 ft | 145 kts | 262° |
| 2026-04-16 04:20 | 45.22713 | 148.06732 | 2863 ft | 121 kts | 269° |
| 2026-04-16 04:20 | 45.22706 | 148.05589 | 2831 ft | 112 kts | 277° |
| 2026-04-16 04:20 | 45.22799 | 148.04476 | 2632 ft | 116 kts | 281° |
| 2026-04-16 04:20 | 45.22943 | 148.03385 | 2372 ft | 108 kts | 285° |
| 2026-04-16 04:21 | 45.23175 | 148.02383 | 2073 ft | 107 kts | 296° |
| 2026-04-16 04:21 | 45.23526 | 148.01448 | 1830 ft | 107 kts | 302° |
| 2026-04-16 04:21 | 45.23891 | 148.00518 | 1540 ft | 109 kts | 298° |
| 2026-04-16 04:21 | 45.24221 | 147.99550 | 1275 ft | 108 kts | 297° |
| 2026-04-16 04:22 | 45.24557 | 147.98590 | 1000 ft | 109 kts | 299° |
| 2026-04-16 04:22 | 45.24911 | 147.97641 | 750 ft | 109 kts | 300° |
| 2026-04-16 04:22 | 45.25255 | 147.96672 | 527 ft | 110 kts | 300° |
| 2026-04-16 04:22 | 45.25591 | 147.95717 | 386 ft | 102 kts | 300° |
| 2026-04-16 04:23 | 45.25735 | 147.95317 | 390 ft | 12 kts | 293° |
| 2026-04-16 04:23 | 45.25791 | 147.95284 | 389 ft | 8 kts | 15° |
| 2026-04-16 04:23 | 45.25803 | 147.95292 | 389 ft | 0 kts | 28° |
| 2026-04-16 04:23 | 45.25859 | 147.95331 | 387 ft | 6 kts | 26° |
| 2026-04-16 04:24 | 45.25892 | 147.95385 | 385 ft | 7 kts | 98° |
| 2026-04-16 04:24 | 45.25870 | 147.95453 | 386 ft | 5 kts | 97° |
| 2026-04-16 04:24 | 45.25889 | 147.95483 | 385 ft | 0 kts | 32° |